createdAt,value
2022-09-03T00:03:05.657Z,101430.41
2022-09-03T00:06:17.861Z,101424.47
2022-09-03T00:09:27.096Z,101427.16
2022-09-03T00:12:39.381Z,101422.44
2022-09-03T00:15:42.765Z,101422.56
2022-09-03T00:18:51.115Z,101421.72
2022-09-03T00:21:59.958Z,101427.16
2022-09-03T00:25:07.186Z,101421.22
2022-09-03T00:28:16.193Z,101424.28
2022-09-03T00:31:27.531Z,101428.06
2022-09-03T00:34:39.255Z,101418.34
2022-09-03T00:37:43.618Z,101419.31
2022-09-03T00:41:03.501Z,101415.84
2022-09-03T00:44:30.783Z,101418.28
2022-09-03T00:47:51.005Z,101415.78
2022-09-03T00:51:12.069Z,101413.06
2022-09-03T00:54:31.081Z,101414.75
2022-09-03T00:57:48.662Z,101410.59
2022-09-03T01:00:53.514Z,101404.09
2022-09-03T01:04:08.632Z,101405.75
2022-09-03T01:07:21.974Z,101404.72
2022-09-03T01:10:36.735Z,101396.38
2022-09-03T01:13:47.446Z,101397.84
2022-09-03T01:16:57.155Z,101404.72
2022-09-03T01:20:15.804Z,101402.25
2022-09-03T01:24:19.076Z,101397.75
2022-09-03T01:27:39.944Z,101397.25
2022-09-03T01:30:50.306Z,101389.47
2022-09-03T01:34:06.981Z,101389.47
2022-09-03T01:37:19.754Z,101385.91
2022-09-03T01:40:35.098Z,101386.75
2022-09-03T01:43:51.015Z,101388.31
2022-09-03T01:47:08.868Z,101381.50
2022-09-03T01:50:27.217Z,101383.00
2022-09-03T01:53:47.174Z,101381.41
2022-09-03T01:57:35.790Z,101385.22
2022-09-03T02:00:43.878Z,101385.94
2022-09-03T02:03:49.993Z,101373.19
2022-09-03T02:06:54.502Z,101392.13
2022-09-03T02:09:57.541Z,101388.78
2022-09-03T02:13:10.389Z,101380.31
2022-09-03T02:16:17.368Z,101381.34
2022-09-03T02:19:21.761Z,101389.28
2022-09-03T02:22:25.135Z,101382.94
2022-09-03T02:25:36.556Z,101387.41
2022-09-03T02:28:39.711Z,101381.34
2022-09-03T02:31:42.705Z,101384.91
2022-09-03T02:34:47.869Z,101381.03
2022-09-03T02:37:50.832Z,101383.00
2022-09-03T02:40:54.799Z,101379.03
2022-09-03T02:44:04.339Z,101384.28
2022-09-03T02:47:10.008Z,101389.50
2022-09-03T02:50:17.498Z,101386.53
2022-09-03T02:53:21.289Z,101376.84
2022-09-03T02:56:27.993Z,101384.88
2022-09-03T02:59:30.988Z,101380.41
2022-09-03T03:02:34.016Z,101374.44
2022-09-03T03:05:45.047Z,101378.09
2022-09-03T03:08:48.416Z,101372.75
2022-09-03T03:11:51.590Z,101380.28
2022-09-03T03:14:55.033Z,101374.00
2022-09-03T03:17:58.184Z,101376.06
2022-09-03T03:21:07.110Z,101375.03
2022-09-03T03:24:11.187Z,101374.84
2022-09-03T03:27:14.935Z,101372.63
2022-09-03T03:30:19.696Z,101377.75
2022-09-03T03:33:22.853Z,101384.44
2022-09-03T03:36:30.496Z,101381.91
2022-09-03T03:39:33.553Z,101386.31
2022-09-03T03:42:36.662Z,101394.91
2022-09-03T03:45:39.674Z,101388.19
2022-09-03T03:48:42.732Z,101389.13
2022-09-03T03:51:47.102Z,101391.09
2022-09-03T03:54:50.758Z,101398.63
2022-09-03T03:57:54.199Z,101393.41
2022-09-03T04:00:57.227Z,101388.00
2022-09-03T04:04:00.995Z,101394.06
2022-09-03T04:07:05.759Z,101394.06
2022-09-03T04:10:10.513Z,101391.00
2022-09-03T04:13:14.191Z,101388.38
2022-09-03T04:16:19.836Z,101384.09
2022-09-03T04:19:23.883Z,101380.22
2022-09-03T04:22:30.522Z,101382.19
2022-09-03T04:25:33.757Z,101379.03
2022-09-03T04:28:37.368Z,101381.56
2022-09-03T04:32:00.637Z,101375.59
2022-09-03T04:35:03.839Z,101368.72
2022-09-03T04:38:08.241Z,101373.81
2022-09-03T04:41:14.055Z,101375.19
2022-09-03T04:44:17.113Z,101374.56
2022-09-03T04:47:20.084Z,101372.03
2022-09-03T04:50:23.607Z,101361.53
2022-09-03T04:53:38.834Z,101362.66
2022-09-03T04:56:41.843Z,101365.59
2022-09-03T04:59:44.895Z,101371.66
2022-09-03T05:02:49.301Z,101369.78
2022-09-03T05:05:56.768Z,101371.56
2022-09-03T05:09:01.673Z,101367.06
2022-09-03T05:12:05.122Z,101367.72
2022-09-03T05:15:09.800Z,101373.06
2022-09-03T05:18:13.508Z,101372.66
2022-09-03T05:21:18.839Z,101367.22
2022-09-03T05:24:24.673Z,101367.75
2022-09-03T05:27:27.935Z,101373.47
2022-09-03T05:30:31.941Z,101370.69
2022-09-03T05:33:36.165Z,101375.72
2022-09-03T05:36:40.196Z,101374.97
2022-09-03T05:39:44.610Z,101374.22
2022-09-03T05:42:47.804Z,101376.97
2022-09-03T05:45:50.870Z,101373.41
2022-09-03T05:48:54.116Z,101374.00
2022-09-03T05:51:57.373Z,101380.28
2022-09-03T05:55:02.092Z,101375.72
2022-09-03T05:58:06.465Z,101380.06
2022-09-03T06:01:14.264Z,101368.59
2022-09-03T06:04:17.870Z,101367.94
2022-09-03T06:07:20.965Z,101372.53
2022-09-03T06:10:28.706Z,101382.03
2022-09-03T06:13:36.556Z,101381.88
2022-09-03T06:16:42.441Z,101385.41
2022-09-03T06:19:45.597Z,101367.59
2022-09-03T06:22:52.946Z,101375.63
2022-09-03T06:26:06.843Z,101382.22
2022-09-03T06:29:10.612Z,101375.56
2022-09-03T06:32:14.581Z,101382.91
2022-09-03T06:35:17.911Z,101387.13
2022-09-03T06:38:21.701Z,101387.47
2022-09-03T06:41:30.811Z,101385.38
2022-09-03T06:44:33.853Z,101394.69
2022-09-03T06:47:37.228Z,101401.41
2022-09-03T06:50:40.232Z,101405.34
2022-09-03T06:53:45.514Z,101402.69
2022-09-03T06:56:50.061Z,101402.13
2022-09-03T06:59:54.711Z,101406.91
2022-09-03T07:02:59.783Z,101400.56
2022-09-03T07:06:03.259Z,101413.25
2022-09-03T07:09:06.576Z,101412.41
2022-09-03T07:12:15.841Z,101403.91
2022-09-03T07:15:20.011Z,101407.72
2022-09-03T07:18:23.087Z,101405.91
2022-09-03T07:21:28.208Z,101408.69
2022-09-03T07:24:31.363Z,101416.47
2022-09-03T07:27:37.763Z,101420.09
2022-09-03T07:30:40.744Z,101417.00
2022-09-03T07:33:44.078Z,101423.47
2022-09-03T07:36:51.165Z,101420.47
2022-09-03T07:39:54.548Z,101419.00
2022-09-03T07:43:04.236Z,101431.22
2022-09-03T07:46:08.424Z,101418.28
2022-09-03T07:49:11.442Z,101422.53
2022-09-03T07:52:14.911Z,101428.28
2022-09-03T07:55:21.765Z,101428.38
2022-09-03T07:58:26.449Z,101434.97
2022-09-03T08:01:31.384Z,101430.94
2022-09-03T08:04:36.104Z,101434.75
2022-09-03T08:07:39.297Z,101436.78
2022-09-03T08:10:45.254Z,101436.22
2022-09-03T08:13:57.642Z,101437.19
2022-09-03T08:17:00.878Z,101441.63
2022-09-03T08:20:05.538Z,101439.00
2022-09-03T08:23:08.601Z,101436.34
2022-09-03T08:26:12.715Z,101430.28
2022-09-03T08:29:17.431Z,101445.03
2022-09-03T08:32:21.023Z,101438.78
2022-09-03T08:35:24.487Z,101438.50
2022-09-03T08:38:27.963Z,101440.94
2022-09-03T08:41:50.612Z,101428.38
2022-09-03T08:44:58.566Z,101428.97
2022-09-03T08:48:07.215Z,101430.22
2022-09-03T08:51:11.604Z,101423.97
2022-09-03T08:54:15.103Z,101427.81
2022-09-03T08:57:20.843Z,101422.13
2022-09-03T09:00:25.344Z,101423.00
2022-09-03T09:03:42.378Z,101428.25
2022-09-03T09:06:51.878Z,101420.63
2022-09-03T09:10:02.187Z,101418.19
2022-09-03T09:13:17.443Z,101418.28
2022-09-03T09:16:32.429Z,101411.09
2022-09-03T09:19:44.138Z,101415.38
2022-09-03T09:22:52.196Z,101406.84
2022-09-03T09:25:57.642Z,101404.31
2022-09-03T09:29:06.394Z,101406.75
2022-09-03T09:32:15.478Z,101402.00
2022-09-03T09:35:19.960Z,101395.81
2022-09-03T09:38:30.575Z,101403.63
2022-09-03T09:41:33.607Z,101395.50
2022-09-03T09:44:36.923Z,101388.84
2022-09-03T09:47:42.499Z,101388.69
2022-09-03T09:50:46.070Z,101384.00
2022-09-03T09:53:50.111Z,101392.78
2022-09-03T09:57:02.408Z,101392.09
2022-09-03T10:00:10.664Z,101394.75
2022-09-03T10:03:18.233Z,101383.88
2022-09-03T10:06:41.813Z,101376.97
2022-09-03T10:09:45.024Z,101385.25
2022-09-03T10:12:52.550Z,101385.22
2022-09-03T10:16:04.053Z,101375.97
2022-09-03T10:19:18.199Z,101375.59
2022-09-03T10:22:26.252Z,101378.94
2022-09-03T10:26:04.528Z,101368.47
2022-09-03T10:29:09.349Z,101372.47
2022-09-03T10:32:39.381Z,101369.31
2022-09-03T10:35:51.648Z,101365.69
2022-09-03T10:39:05.627Z,101365.34
2022-09-03T10:42:31.403Z,101358.31
2022-09-03T10:45:42.429Z,101357.19
2022-09-03T10:49:13.809Z,101373.56
2022-09-03T10:52:29.553Z,101365.09
2022-09-03T10:55:43.678Z,101364.97
2022-09-03T10:59:06.089Z,101342.09
2022-09-03T11:02:31.034Z,101347.19
2022-09-03T11:05:39.252Z,101334.63
2022-09-03T11:08:50.731Z,101338.63
2022-09-03T11:11:58.943Z,101334.81
2022-09-03T11:15:05.911Z,101341.13
2022-09-03T11:18:20.196Z,101329.69
2022-09-03T11:21:29.374Z,101333.63
2022-09-03T11:24:37.306Z,101332.13
2022-09-03T11:27:58.880Z,101315.59
2022-09-03T11:31:25.270Z,101314.78
2022-09-03T11:34:33.889Z,101312.22
2022-09-03T11:37:53.022Z,101311.81
2022-09-03T11:41:04.701Z,101309.59
2022-09-03T11:44:37.742Z,101307.63
2022-09-03T11:47:53.795Z,101305.81
2022-09-03T11:50:57.343Z,101311.94
2022-09-03T11:54:02.909Z,101300.19
2022-09-03T11:57:14.983Z,101294.72
2022-09-03T12:00:22.601Z,101293.53
2022-09-03T12:03:30.012Z,101298.34
2022-09-03T12:07:07.685Z,101303.31
2022-09-03T12:10:35.896Z,101290.38
2022-09-03T12:13:52.116Z,101287.91
2022-09-03T12:17:12.693Z,101282.41
2022-09-03T12:20:17.250Z,101275.75
2022-09-03T12:23:30.807Z,101273.78
2022-09-03T12:26:42.136Z,101274.97
2022-09-03T12:29:56.761Z,101279.59
2022-09-03T12:33:08.532Z,101281.75
2022-09-03T12:36:11.642Z,101264.16
2022-09-03T12:39:17.092Z,101268.28
2022-09-03T12:42:25.987Z,101258.75
2022-09-03T12:46:09.972Z,101258.13
2022-09-03T12:52:30.835Z,101257.94
2022-09-03T12:55:40.313Z,101254.44
2022-09-03T12:58:52.457Z,101249.03
2022-09-03T13:02:01.850Z,101254.56
2022-09-03T13:05:07.738Z,101254.88
2022-09-03T13:08:16.239Z,101246.59
2022-09-03T13:11:22.335Z,101240.84
2022-09-03T13:14:28.272Z,101245.81
2022-09-03T13:17:54.245Z,101248.56
2022-09-03T13:21:13.104Z,101248.25
2022-09-03T13:24:41.481Z,101239.53
2022-09-03T13:27:56.030Z,101228.09
2022-09-03T13:31:06.549Z,101226.63
2022-09-03T13:34:17.227Z,101234.44
2022-09-03T13:37:28.719Z,101230.81
2022-09-03T13:40:39.714Z,101236.50
2022-09-03T13:43:50.655Z,101236.19
2022-09-03T13:46:56.650Z,101232.06
2022-09-03T13:50:23.105Z,101228.69
2022-09-03T13:53:41.233Z,101227.75
2022-09-03T13:56:56.313Z,101222.31
2022-09-03T14:00:06.872Z,101221.13
2022-09-03T14:03:18.160Z,101216.41
2022-09-03T14:06:40.259Z,101220.66
2022-09-03T14:09:56.005Z,101222.44
2022-09-03T14:13:13.475Z,101208.66
2022-09-03T14:16:29.750Z,101206.63
2022-09-03T14:19:42.689Z,101217.72
2022-09-03T14:22:55.321Z,101216.81
2022-09-03T14:26:02.482Z,101212.50
2022-09-03T14:29:15.048Z,101210.13
2022-09-03T14:32:32.554Z,101198.22
2022-09-03T14:35:51.657Z,101189.44
2022-09-03T14:39:32.499Z,101183.97
2022-09-03T14:42:58.800Z,101191.75
2022-09-03T14:46:24.375Z,101193.53
2022-09-03T14:49:53.118Z,101187.13
2022-09-03T14:53:24.613Z,101186.19
2022-09-03T14:56:45.517Z,101188.63
2022-09-03T15:00:06.869Z,101196.41
2022-09-03T15:03:39.079Z,101193.81
2022-09-03T15:06:58.428Z,101197.78
2022-09-03T15:10:16.969Z,101182.75
2022-09-03T15:13:26.323Z,101184.78
2022-09-03T15:16:45.470Z,101170.19
2022-09-03T15:20:14.892Z,101181.47
2022-09-03T15:23:40.091Z,101178.09
2022-09-03T15:27:06.891Z,101177.66
2022-09-03T15:30:13.734Z,101176.63
2022-09-03T15:33:29.690Z,101179.66
2022-09-03T15:36:41.536Z,101184.84
2022-09-03T15:39:47.149Z,101187.16
2022-09-03T15:42:53.975Z,101186.06
2022-09-03T15:46:01.938Z,101186.53
2022-09-03T15:49:19.554Z,101186.50
2022-09-03T15:52:34.319Z,101189.72
2022-09-03T15:55:41.351Z,101188.38
2022-09-03T15:58:54.008Z,101190.56
2022-09-03T16:02:10.894Z,101184.56
2022-09-03T16:05:19.440Z,101188.78
2022-09-03T16:08:29.511Z,101197.06
2022-09-03T16:11:41.823Z,101187.84
2022-09-03T16:14:52.540Z,101192.19
2022-09-03T16:18:04.088Z,101191.56
2022-09-03T16:21:14.037Z,101190.56
2022-09-03T16:24:23.535Z,101192.22
2022-09-03T16:27:32.624Z,101184.28
2022-09-03T16:30:53.979Z,101190.25
2022-09-03T16:34:08.510Z,101195.19
2022-09-03T16:37:27.508Z,101190.41
2022-09-03T16:40:40.416Z,101192.25
2022-09-03T16:43:48.181Z,101194.28
2022-09-03T16:47:03.005Z,101201.91
2022-09-03T16:50:27.788Z,101198.09
2022-09-03T16:53:51.047Z,101203.41
2022-09-03T16:57:11.000Z,101197.78
2022-09-03T17:00:16.427Z,101205.88
2022-09-03T17:03:56.764Z,101195.94
2022-09-03T17:07:20.633Z,101192.91
2022-09-03T17:10:34.266Z,101196.22
2022-09-03T17:13:51.326Z,101193.91
2022-09-03T17:17:06.296Z,101194.59
2022-09-03T17:20:20.015Z,101196.56
2022-09-03T17:23:50.080Z,101196.75
2022-09-03T17:27:07.352Z,101206.19
2022-09-03T17:30:18.706Z,101198.03
2022-09-03T17:33:53.489Z,101201.34
2022-09-03T17:37:08.937Z,101202.81
2022-09-03T17:40:28.659Z,101211.72
2022-09-03T17:43:43.995Z,101198.13
2022-09-03T17:46:53.285Z,101206.09
2022-09-03T17:50:01.611Z,101209.59
2022-09-03T17:53:13.279Z,101215.84
2022-09-03T17:56:26.542Z,101211.84
2022-09-03T17:59:50.761Z,101212.91
2022-09-03T18:02:59.943Z,101217.84
2022-09-03T18:06:09.987Z,101218.69
2022-09-03T18:09:26.171Z,101232.19
2022-09-03T18:12:42.059Z,101238.13
2022-09-03T18:15:54.205Z,101233.66
2022-09-03T18:19:03.827Z,101233.44
2022-09-03T18:22:25.076Z,101238.91
2022-09-03T18:25:48.839Z,101249.41
2022-09-03T18:29:16.419Z,101244.56
2022-09-03T18:32:37.969Z,101246.53
2022-09-03T18:35:58.572Z,101240.97
2022-09-03T18:39:30.111Z,101252.81
2022-09-03T18:43:03.512Z,101258.41
2022-09-03T18:47:47.735Z,101251.47
2022-09-03T18:50:23.184Z,101255.91
2022-09-03T18:53:54.447Z,101257.38
2022-09-03T18:57:17.591Z,101255.00
2022-09-03T19:00:38.581Z,101257.00
2022-09-03T19:04:17.376Z,101261.69
2022-09-03T19:07:47.085Z,101260.88
2022-09-03T19:11:14.098Z,101263.31
2022-09-03T19:14:48.317Z,101255.31
2022-09-03T19:18:37.421Z,101256.75
2022-09-03T19:22:06.476Z,101253.63
2022-09-03T19:25:31.986Z,101271.44
2022-09-03T19:29:00.417Z,101264.81
2022-09-03T19:32:30.572Z,101267.59
2022-09-03T19:35:59.869Z,101270.31
2022-09-03T19:39:45.344Z,101281.47
2022-09-03T19:43:16.163Z,101280.75
2022-09-03T19:46:49.234Z,101273.78
2022-09-03T19:50:22.633Z,101273.53
2022-09-03T19:53:43.987Z,101279.66
2022-09-03T19:57:07.591Z,101274.69
2022-09-03T20:00:32.911Z,101273.38
2022-09-03T20:03:54.693Z,101278.38
2022-09-03T20:07:17.221Z,101283.69
2022-09-03T20:10:23.292Z,101291.47
2022-09-03T20:13:27.877Z,101291.22
2022-09-03T20:16:38.470Z,101298.84
2022-09-03T20:20:00.566Z,101295.13
2022-09-03T20:23:12.780Z,101301.41
2022-09-03T20:26:32.337Z,101304.59
2022-09-03T20:29:59.932Z,101309.06
2022-09-03T20:33:32.252Z,101313.19
2022-09-03T20:36:50.922Z,101314.34
2022-09-03T20:40:28.830Z,101309.38
2022-09-03T20:43:56.327Z,101301.28
2022-09-03T20:47:17.150Z,101307.00
2022-09-03T20:50:40.119Z,101310.63
2022-09-03T20:54:03.636Z,101312.13
2022-09-03T20:57:27.216Z,101313.00
2022-09-03T21:00:49.170Z,101312.19
2022-09-03T21:04:04.457Z,101315.53
2022-09-03T21:07:18.347Z,101308.44
2022-09-03T21:10:31.821Z,101305.53
2022-09-03T21:13:44.847Z,101311.22
2022-09-03T21:17:04.527Z,101315.41
2022-09-03T21:20:21.824Z,101317.34
2022-09-03T21:23:30.324Z,101315.69
2022-09-03T21:26:41.748Z,101322.78
2022-09-03T21:29:58.494Z,101316.25
2022-09-03T21:33:09.563Z,101312.78
2022-09-03T21:36:17.795Z,101322.25
2022-09-03T21:39:32.228Z,101322.38
2022-09-03T21:42:42.580Z,101323.09
2022-09-03T21:45:53.302Z,101332.38
2022-09-03T21:49:00.643Z,101336.97
2022-09-03T21:52:09.734Z,101339.88
2022-09-03T21:55:23.207Z,101338.91
2022-09-03T21:58:50.674Z,101336.44
2022-09-03T22:02:04.616Z,101348.06
2022-09-03T22:05:09.034Z,101342.66
2022-09-03T22:08:25.213Z,101343.22
2022-09-03T22:11:34.044Z,101338.50
2022-09-03T22:14:48.173Z,101350.84
2022-09-03T22:17:57.102Z,101353.22
2022-09-03T22:21:13.231Z,101350.56
2022-09-03T22:24:23.434Z,101354.00
2022-09-03T22:27:39.237Z,101354.69
2022-09-03T22:30:52.163Z,101350.53
2022-09-03T22:34:06.299Z,101360.53
2022-09-03T22:37:20.245Z,101356.22
2022-09-03T22:40:30.292Z,101362.59
2022-09-03T22:43:38.790Z,101363.81
2022-09-03T22:46:50.095Z,101366.34
2022-09-03T22:50:04.632Z,101361.34
2022-09-03T22:53:34.378Z,101368.81
2022-09-03T22:56:42.588Z,101375.44
2022-09-03T22:59:55.440Z,101374.63
2022-09-03T23:03:08.103Z,101379.31
2022-09-03T23:06:19.448Z,101383.84
2022-09-03T23:09:26.350Z,101380.09
2022-09-03T23:12:38.488Z,101382.47
2022-09-03T23:15:43.269Z,101378.69
2022-09-03T23:18:47.968Z,101379.91
2022-09-03T23:21:56.188Z,101380.78
2022-09-03T23:25:05.546Z,101384.78
2022-09-03T23:28:17.675Z,101381.72
2022-09-03T23:31:24.483Z,101392.78
2022-09-03T23:34:28.582Z,101389.41
2022-09-03T23:38:02.704Z,101387.31
2022-09-03T23:41:11.348Z,101398.50
2022-09-03T23:44:38.530Z,101395.03
2022-09-03T23:47:45.750Z,101389.06
2022-09-03T23:51:02.923Z,101392.22
2022-09-03T23:54:14.480Z,101392.25
2022-09-03T23:57:25.210Z,101398.47
